createdAt,value
2023-05-14T00:00:34.194Z,36.49
2023-05-14T00:01:34.180Z,37.00
2023-05-14T00:02:34.302Z,37.21
2023-05-14T00:03:34.192Z,37.51
2023-05-14T00:04:34.136Z,37.71
2023-05-14T00:05:34.124Z,37.82
2023-05-14T00:06:34.113Z,38.53
2023-05-14T00:07:34.098Z,38.73
2023-05-14T00:08:34.096Z,39.14
2023-05-14T00:09:34.083Z,39.04
2023-05-14T00:10:34.047Z,38.83
2023-05-14T00:11:34.057Z,39.24
2023-05-14T00:12:34.027Z,39.66
2023-05-14T00:13:34.010Z,39.76
2023-05-14T00:14:34.027Z,39.97
2023-05-14T00:15:34.475Z,39.66
2023-05-14T00:16:34.051Z,40.17
2023-05-14T00:17:33.988Z,40.27
2023-05-14T00:18:33.978Z,39.87
2023-05-14T00:19:33.926Z,40.27
2023-05-14T00:20:33.950Z,39.87
2023-05-14T00:21:33.898Z,39.78
2023-05-14T00:22:33.908Z,40.30
2023-05-14T00:23:33.873Z,40.19
2023-05-14T00:24:33.857Z,39.78
2023-05-14T00:25:33.872Z,39.07
2023-05-14T00:26:33.842Z,38.76
2023-05-14T00:27:33.839Z,38.87
2023-05-14T00:28:33.800Z,38.26
2023-05-14T00:29:33.814Z,38.06
2023-05-14T00:30:33.780Z,37.85
2023-05-14T00:31:33.809Z,38.67
2023-05-14T00:32:33.819Z,37.85
2023-05-14T00:33:33.733Z,38.15
2023-05-14T00:34:33.738Z,38.38
2023-05-14T00:35:33.701Z,37.97
2023-05-14T00:36:33.694Z,38.07
2023-05-14T00:37:33.692Z,38.07
2023-05-14T00:38:33.660Z,38.28
2023-05-14T00:39:33.676Z,38.48
2023-05-14T00:40:33.642Z,39.19
2023-05-14T00:41:33.622Z,39.19
2023-05-14T00:42:33.617Z,38.89
2023-05-14T00:43:33.640Z,38.89
2023-05-14T00:44:33.613Z,38.48
2023-05-14T00:45:33.578Z,38.70
2023-05-14T00:46:33.634Z,38.70
2023-05-14T00:47:33.572Z,38.90
2023-05-14T00:48:33.548Z,39.01
2023-05-14T00:49:33.537Z,38.80
2023-05-14T00:50:33.521Z,38.80
2023-05-14T00:51:33.497Z,38.49
2023-05-14T00:52:33.481Z,37.88
2023-05-14T00:53:33.499Z,37.07
2023-05-14T00:54:33.481Z,36.97
2023-05-14T00:55:33.458Z,37.07
2023-05-14T00:56:33.420Z,37.07
2023-05-14T00:57:33.442Z,36.38
2023-05-14T00:58:33.455Z,35.36
2023-05-14T00:59:33.396Z,35.05
2023-05-14T01:00:33.378Z,34.64
2023-05-14T01:01:33.445Z,34.54
2023-05-14T01:02:33.518Z,33.74
2023-05-14T01:03:33.460Z,33.74
2023-05-14T01:04:33.318Z,33.74
2023-05-14T01:05:33.313Z,33.64
2023-05-14T01:06:33.294Z,34.05
2023-05-14T01:07:33.297Z,33.13
2023-05-14T01:08:33.266Z,32.62
2023-05-14T01:09:33.258Z,32.52
2023-05-14T01:10:33.259Z,31.50
2023-05-14T01:11:33.247Z,31.60
2023-05-14T01:12:33.215Z,31.60
2023-05-14T01:13:33.199Z,31.40
2023-05-14T01:14:33.174Z,30.99
2023-05-14T01:15:33.188Z,30.58
2023-05-14T01:16:33.232Z,30.79
2023-05-14T01:17:33.195Z,31.20
2023-05-14T01:18:33.164Z,32.01
2023-05-14T01:19:33.117Z,30.99
2023-05-14T01:20:33.108Z,31.29
2023-05-14T01:21:33.109Z,32.11
2023-05-14T01:22:33.068Z,31.81
2023-05-14T01:23:33.078Z,31.91
2023-05-14T01:24:33.047Z,31.29
2023-05-14T01:25:33.059Z,30.99
2023-05-14T01:26:33.007Z,30.99
2023-05-14T01:27:33.015Z,30.60
2023-05-14T01:28:32.990Z,30.49
2023-05-14T01:29:32.987Z,30.90
2023-05-14T01:30:33.000Z,30.80
2023-05-14T01:31:32.984Z,30.08
2023-05-14T01:32:32.984Z,30.19
2023-05-14T01:33:32.960Z,30.29
2023-05-14T01:34:32.962Z,30.60
2023-05-14T01:35:32.920Z,29.88
2023-05-14T01:36:32.885Z,29.78
2023-05-14T01:37:32.879Z,29.17
2023-05-14T01:38:32.848Z,28.86
2023-05-14T01:39:32.867Z,28.25
2023-05-14T01:40:32.832Z,27.74
2023-05-14T01:41:32.820Z,27.84
2023-05-14T01:42:32.793Z,27.45
2023-05-14T01:43:32.817Z,27.04
2023-05-14T01:44:32.818Z,26.42
2023-05-14T01:45:32.759Z,27.14
2023-05-14T01:46:32.899Z,27.65
2023-05-14T01:47:32.744Z,26.73
2023-05-14T01:48:32.738Z,26.43
2023-05-14T01:49:32.755Z,27.04
2023-05-14T01:50:32.720Z,26.02
2023-05-14T01:51:32.680Z,25.92
2023-05-14T01:52:32.659Z,26.12
2023-05-14T01:53:32.686Z,26.43
2023-05-14T01:54:32.633Z,26.63
2023-05-14T01:55:32.627Z,26.53
2023-05-14T01:56:32.607Z,26.12
2023-05-14T01:57:32.605Z,25.40
2023-05-14T01:58:32.589Z,25.51
2023-05-14T01:59:32.590Z,24.69
2023-05-14T02:00:32.557Z,24.29
2023-05-14T02:01:32.584Z,24.19
2023-05-14T02:02:32.577Z,23.79
2023-05-14T02:03:32.554Z,24.50
2023-05-14T02:04:32.496Z,23.89
2023-05-14T02:05:32.480Z,23.58
2023-05-14T02:06:32.455Z,24.29
2023-05-14T02:07:32.477Z,23.89
2023-05-14T02:08:32.431Z,24.70
2023-05-14T02:09:32.430Z,24.80
2023-05-14T02:10:32.425Z,24.09
2023-05-14T02:11:32.432Z,23.79
2023-05-14T02:12:32.427Z,23.48
2023-05-14T02:13:32.379Z,23.58
2023-05-14T02:14:32.352Z,23.17
2023-05-14T02:15:32.359Z,23.48
2023-05-14T02:16:32.446Z,23.07
2023-05-14T02:17:32.368Z,23.89
2023-05-14T02:18:32.351Z,24.50
2023-05-14T02:19:32.295Z,24.29
2023-05-14T02:20:32.280Z,23.68
2023-05-14T02:21:32.313Z,23.38
2023-05-14T02:22:32.259Z,22.97
2023-05-14T02:23:40.936Z,22.66
2023-05-14T02:24:33.220Z,22.56
2023-05-14T02:25:32.205Z,22.66
2023-05-14T02:26:32.231Z,21.23
2023-05-14T02:27:32.190Z,20.83
2023-05-14T02:28:32.168Z,19.90
2023-05-14T02:29:32.155Z,19.40
2023-05-14T02:30:32.171Z,19.29
2023-05-14T02:31:32.192Z,20.11
2023-05-14T02:32:32.182Z,19.80
2023-05-14T02:33:32.127Z,19.80
2023-05-14T02:34:32.106Z,19.80
2023-05-14T02:35:32.103Z,20.11
2023-05-14T02:36:32.068Z,21.13
2023-05-14T02:37:32.040Z,21.13
2023-05-14T02:38:32.026Z,21.74
2023-05-14T02:39:32.017Z,22.27
2023-05-14T02:40:32.023Z,22.67
2023-05-14T02:41:31.993Z,22.77
2023-05-14T02:42:31.979Z,23.08
2023-05-14T02:43:31.976Z,22.36
2023-05-14T02:44:31.990Z,22.27
2023-05-14T02:45:31.957Z,22.88
2023-05-14T02:46:31.953Z,23.49
2023-05-14T02:47:31.936Z,23.69
2023-05-14T02:48:31.905Z,23.80
2023-05-14T02:49:31.923Z,24.00
2023-05-14T02:50:31.874Z,24.21
2023-05-14T02:51:31.870Z,24.41
2023-05-14T02:52:31.838Z,24.52
2023-05-14T02:53:31.856Z,24.62
2023-05-14T02:54:31.831Z,23.80
2023-05-14T02:55:31.834Z,24.42
2023-05-14T02:56:31.801Z,24.42
2023-05-14T02:57:31.772Z,24.52
2023-05-14T02:58:31.770Z,23.30
2023-05-14T02:59:31.804Z,22.99
2023-05-14T03:00:31.720Z,24.11
2023-05-14T03:01:31.736Z,22.89
2023-05-14T03:02:31.789Z,23.19
2023-05-14T03:03:31.725Z,23.39
2023-05-14T03:04:31.675Z,23.39
2023-05-14T03:05:31.674Z,22.58
2023-05-14T03:06:31.647Z,22.68
2023-05-14T03:07:31.650Z,22.68
2023-05-14T03:08:31.634Z,22.48
2023-05-14T03:09:31.607Z,22.48
2023-05-14T03:10:31.585Z,22.49
2023-05-14T03:11:31.592Z,22.49
2023-05-14T03:12:31.571Z,22.18
2023-05-14T03:13:31.556Z,21.77
2023-05-14T03:14:31.555Z,21.47
2023-05-14T03:15:31.531Z,20.75
2023-05-14T03:16:31.584Z,20.95
2023-05-14T03:17:31.537Z,20.65
2023-05-14T03:18:31.503Z,20.95
2023-05-14T03:19:31.483Z,20.54
2023-05-14T03:20:31.446Z,20.86
2023-05-14T03:21:31.477Z,20.65
2023-05-14T03:22:31.455Z,19.63
2023-05-14T03:23:31.415Z,19.42
2023-05-14T03:24:31.415Z,19.33
2023-05-14T03:25:31.390Z,19.94
2023-05-14T03:26:31.441Z,19.33
2023-05-14T03:27:31.356Z,19.64
2023-05-14T03:28:31.346Z,20.04
2023-05-14T03:29:31.340Z,20.04
2023-05-14T03:30:31.335Z,20.97
2023-05-14T03:31:31.329Z,21.27
2023-05-14T03:32:31.345Z,21.37
2023-05-14T03:33:31.303Z,21.07
2023-05-14T03:34:31.259Z,21.37
2023-05-14T03:35:31.265Z,21.89
2023-05-14T03:36:31.236Z,21.68
2023-05-14T03:37:31.222Z,21.98
2023-05-14T03:38:31.216Z,21.78
2023-05-14T03:39:31.202Z,20.97
2023-05-14T03:40:31.190Z,20.45
2023-05-14T03:41:31.191Z,20.35
2023-05-14T03:42:31.166Z,19.64
2023-05-14T03:43:31.138Z,19.84
2023-05-14T03:44:31.132Z,19.94
2023-05-14T03:45:31.180Z,18.82
2023-05-14T03:46:31.098Z,19.02
2023-05-14T03:47:31.133Z,19.12
2023-05-14T03:48:31.121Z,18.30
2023-05-14T03:49:31.092Z,18.30
2023-05-14T03:50:31.057Z,18.71
2023-05-14T03:51:31.043Z,18.20
2023-05-14T03:52:31.012Z,17.29
2023-05-14T03:53:31.016Z,16.97
2023-05-14T03:54:31.031Z,16.97
2023-05-14T03:55:30.968Z,16.16
2023-05-14T03:56:30.972Z,16.88
2023-05-14T03:57:30.955Z,16.47
2023-05-14T03:58:30.954Z,16.05
2023-05-14T03:59:30.931Z,16.05
2023-05-14T04:00:30.919Z,15.64
2023-05-14T04:01:30.906Z,15.44
2023-05-14T04:02:30.983Z,14.93
2023-05-14T04:03:31.186Z,14.83
2023-05-14T04:04:30.904Z,14.73
2023-05-14T04:05:30.842Z,14.73
2023-05-14T04:06:30.833Z,15.23
2023-05-14T04:07:30.809Z,15.14
2023-05-14T04:08:30.833Z,14.83
2023-05-14T04:09:30.799Z,14.73
2023-05-14T04:10:30.771Z,14.42
2023-05-14T04:11:30.747Z,14.52
2023-05-14T04:12:30.741Z,14.83
2023-05-14T04:13:30.756Z,14.62
2023-05-14T04:14:30.731Z,14.62
2023-05-14T04:15:30.699Z,14.62
2023-05-14T04:16:30.744Z,15.03
2023-05-14T04:17:30.713Z,14.42
2023-05-14T04:18:30.744Z,14.22
2023-05-14T04:19:30.647Z,13.91
2023-05-14T04:20:30.644Z,14.32
2023-05-14T04:21:30.620Z,13.81
2023-05-14T04:22:30.624Z,13.60
2023-05-14T04:23:30.622Z,13.70
2023-05-14T04:24:30.583Z,13.50
2023-05-14T04:25:30.585Z,13.19
2023-05-14T04:26:30.564Z,13.29
2023-05-14T04:27:30.551Z,13.09
2023-05-14T04:28:30.544Z,13.70
2023-05-14T04:29:30.514Z,12.88
2023-05-14T04:30:30.504Z,13.19
2023-05-14T04:31:30.540Z,13.09
2023-05-14T04:32:30.502Z,13.29
2023-05-14T04:33:30.451Z,13.19
2023-05-14T04:34:30.451Z,12.99
2023-05-14T04:35:30.437Z,12.57
2023-05-14T04:36:30.488Z,12.27
2023-05-14T04:37:30.409Z,11.96
2023-05-14T04:38:30.408Z,11.76
2023-05-14T04:39:30.391Z,12.27
2023-05-14T04:40:30.372Z,12.16
2023-05-14T04:41:30.358Z,12.16
2023-05-14T04:42:30.330Z,12.27
2023-05-14T04:43:30.322Z,12.57
2023-05-14T04:44:30.320Z,12.88
2023-05-14T04:45:32.159Z,13.59
2023-05-14T04:46:30.384Z,13.29
2023-05-14T04:47:30.272Z,13.49
2023-05-14T04:48:30.262Z,13.09
2023-05-14T04:49:30.237Z,13.29
2023-05-14T04:50:30.252Z,12.98
2023-05-14T04:51:30.215Z,12.98
2023-05-14T04:52:30.201Z,12.67
2023-05-14T04:53:30.171Z,12.46
2023-05-14T04:54:30.238Z,12.05
2023-05-14T04:55:30.169Z,11.85
2023-05-14T04:56:30.164Z,12.16
2023-05-14T04:57:30.149Z,12.46
2023-05-14T04:58:31.170Z,12.67
2023-05-14T04:59:30.098Z,12.16
2023-05-14T05:00:30.129Z,12.26
2023-05-14T05:01:30.104Z,11.64
2023-05-14T05:02:30.089Z,11.74
2023-05-14T05:03:30.107Z,12.35
2023-05-14T05:04:30.034Z,11.33
2023-05-14T05:05:30.035Z,12.46
2023-05-14T05:06:30.029Z,12.97
2023-05-14T05:07:29.993Z,12.15
2023-05-14T05:08:30.017Z,11.64
2023-05-14T05:09:29.977Z,11.94
2023-05-14T05:10:29.968Z,12.04
2023-05-14T05:11:29.952Z,12.25
2023-05-14T05:12:29.947Z,11.13
2023-05-14T05:13:29.941Z,11.13
2023-05-14T05:14:29.900Z,10.61
2023-05-14T05:15:29.891Z,10.72
2023-05-14T05:16:29.986Z,10.51
2023-05-14T05:17:29.983Z,10.71
2023-05-14T05:18:29.925Z,11.43
2023-05-14T05:19:42.520Z,11.32
2023-05-14T05:20:30.820Z,11.22
2023-05-14T05:21:29.810Z,11.12
2023-05-14T05:22:29.813Z,11.43
2023-05-14T05:23:29.793Z,11.63
2023-05-14T05:24:29.775Z,11.83
2023-05-14T05:25:29.755Z,12.34
2023-05-14T05:26:29.740Z,12.85
2023-05-14T05:27:29.768Z,13.26
2023-05-14T05:28:29.712Z,13.06
2023-05-14T05:29:29.692Z,13.16
2023-05-14T05:30:29.682Z,13.36
2023-05-14T05:31:29.737Z,13.46
2023-05-14T05:32:29.733Z,13.67
2023-05-14T05:33:29.650Z,13.36
2023-05-14T05:34:29.632Z,13.87
2023-05-14T05:35:29.640Z,13.97
2023-05-14T05:36:29.615Z,13.87
2023-05-14T05:37:29.591Z,14.69
2023-05-14T05:38:29.621Z,13.97
2023-05-14T05:39:29.559Z,14.58
2023-05-14T05:40:29.560Z,15.39
2023-05-14T05:41:29.554Z,15.70
2023-05-14T05:42:29.558Z,14.78
2023-05-14T05:43:29.513Z,15.49
2023-05-14T05:44:29.516Z,16.51
2023-05-14T05:45:29.480Z,17.22
2023-05-14T05:46:29.521Z,16.92
2023-05-14T05:47:29.497Z,16.82
2023-05-14T05:48:29.435Z,15.90
2023-05-14T05:49:29.435Z,16.31
2023-05-14T05:50:29.432Z,16.30
2023-05-14T05:51:29.403Z,16.30
2023-05-14T05:52:29.385Z,16.40
2023-05-14T05:53:29.363Z,16.71
2023-05-14T05:54:29.355Z,16.50
2023-05-14T05:55:29.381Z,16.50
2023-05-14T05:56:29.339Z,16.91
2023-05-14T05:57:29.315Z,17.31
2023-05-14T05:58:29.300Z,17.93
2023-05-14T05:59:29.300Z,18.63
2023-05-14T06:00:29.338Z,19.15
2023-05-14T06:01:29.261Z,20.87
2023-05-14T06:02:29.365Z,21.59
2023-05-14T06:03:29.225Z,21.48
2023-05-14T06:04:29.247Z,24.33
2023-05-14T06:05:29.230Z,26.46
2023-05-14T06:06:29.196Z,27.28
2023-05-14T06:07:29.177Z,27.89
2023-05-14T06:08:29.169Z,31.05
2023-05-14T06:09:29.169Z,33.29
2023-05-14T06:10:29.162Z,34.41
2023-05-14T06:11:29.136Z,33.37
2023-05-14T06:12:29.121Z,33.17
2023-05-14T06:13:29.123Z,34.09
2023-05-14T06:14:29.125Z,34.59
2023-05-14T06:15:29.067Z,37.45
2023-05-14T06:16:29.100Z,38.87
2023-05-14T06:17:29.077Z,39.06
2023-05-14T06:18:29.111Z,38.34
2023-05-14T06:19:29.015Z,38.34
2023-05-14T06:20:29.026Z,38.45
2023-05-14T06:21:28.991Z,40.88
2023-05-14T06:22:28.978Z,43.73
2023-05-14T06:23:28.968Z,43.30
2023-05-14T06:24:28.946Z,44.42
2023-05-14T06:25:28.958Z,45.64
2023-05-14T06:26:28.922Z,46.25
2023-05-14T06:27:28.922Z,46.36
2023-05-14T06:28:28.910Z,47.78
2023-05-14T06:29:28.882Z,47.67
2023-05-14T06:30:28.919Z,47.66
2023-05-14T06:31:28.866Z,48.47
2023-05-14T06:32:28.895Z,49.58
2023-05-14T06:33:28.821Z,51.21
2023-05-14T06:34:28.812Z,52.40
2023-05-14T06:35:28.811Z,53.02
2023-05-14T06:36:28.794Z,52.71
2023-05-14T06:37:28.784Z,54.64
2023-05-14T06:38:28.761Z,54.94
2023-05-14T06:39:28.748Z,54.64
2023-05-14T06:40:28.757Z,54.84
2023-05-14T06:41:28.718Z,55.32
2023-05-14T06:42:28.714Z,54.92
2023-05-14T06:43:28.693Z,56.54
2023-05-14T06:44:28.720Z,58.67
2023-05-14T06:45:28.653Z,58.78
2023-05-14T06:46:28.666Z,59.99
2023-05-14T06:47:28.670Z,61.49
2023-05-14T06:48:28.698Z,64.64
2023-05-14T06:49:28.601Z,63.32
2023-05-14T06:50:28.583Z,64.73
2023-05-14T06:51:28.627Z,65.45
2023-05-14T06:52:28.560Z,65.55
2023-05-14T06:53:28.556Z,65.45
2023-05-14T06:54:28.536Z,66.16
2023-05-14T06:55:28.541Z,66.63
2023-05-14T06:56:28.526Z,67.34
2023-05-14T06:57:28.487Z,68.87
2023-05-14T06:58:28.523Z,68.87
2023-05-14T06:59:28.491Z,69.07
2023-05-14T07:00:28.465Z,68.96
2023-05-14T07:01:28.488Z,67.85
2023-05-14T07:02:28.460Z,67.82
2023-05-14T07:03:28.463Z,69.03
2023-05-14T07:04:28.456Z,68.43
2023-05-14T07:05:28.393Z,68.32
2023-05-14T07:06:28.366Z,68.93
2023-05-14T07:07:28.372Z,68.12
2023-05-14T07:08:28.338Z,69.92
2023-05-14T07:09:28.325Z,72.17
2023-05-14T07:10:28.376Z,71.67
2023-05-14T07:11:28.305Z,72.75
2023-05-14T07:12:28.315Z,71.53
2023-05-14T07:13:28.763Z,71.03
2023-05-14T07:14:28.266Z,72.14
2023-05-14T07:15:28.256Z,73.97
2023-05-14T07:16:28.294Z,73.05
2023-05-14T07:17:28.358Z,73.25
2023-05-14T07:18:28.275Z,72.11
2023-05-14T07:19:28.208Z,73.83
2023-05-14T07:20:28.217Z,78.08
2023-05-14T07:21:28.161Z,76.40
2023-05-14T07:22:28.162Z,75.65
2023-05-14T07:23:28.149Z,75.35
2023-05-14T07:24:28.157Z,74.74
2023-05-14T07:25:28.125Z,75.25
2023-05-14T07:26:28.100Z,76.23
2023-05-14T07:27:28.094Z,77.54
2023-05-14T07:28:28.110Z,74.40
2023-05-14T07:29:28.059Z,73.90
2023-05-14T07:30:28.101Z,73.90
2023-05-14T07:31:28.133Z,73.25
2023-05-14T07:32:28.056Z,74.67
2023-05-14T07:33:28.008Z,79.13
2023-05-14T07:34:28.005Z,79.43
2023-05-14T07:35:28.011Z,78.62
2023-05-14T07:36:27.979Z,80.24
2023-05-14T07:37:27.966Z,79.13
2023-05-14T07:38:27.961Z,78.38
2023-05-14T07:39:27.934Z,79.08
2023-05-14T07:40:28.011Z,79.90
2023-05-14T07:41:27.898Z,81.92
2023-05-14T07:42:36.001Z,86.07
2023-05-14T07:43:28.890Z,85.66
2023-05-14T07:44:27.862Z,84.45
2023-05-14T07:45:27.858Z,84.34
2023-05-14T07:46:27.843Z,84.34
2023-05-14T07:47:27.882Z,82.99
2023-05-14T07:48:27.829Z,83.70
2023-05-14T07:49:27.789Z,85.52
2023-05-14T07:50:27.866Z,87.95
2023-05-14T07:51:27.753Z,88.10
2023-05-14T07:52:27.815Z,88.41
2023-05-14T07:53:27.737Z,90.23
2023-05-14T07:54:27.734Z,89.83
2023-05-14T07:55:27.710Z,87.90
2023-05-14T07:56:27.698Z,89.32
2023-05-14T07:57:27.681Z,89.68
2023-05-14T07:58:27.691Z,89.17
2023-05-14T07:59:27.659Z,89.68
2023-05-14T08:00:27.683Z,90.79
2023-05-14T08:01:27.637Z,91.39
2023-05-14T08:02:27.679Z,90.28
2023-05-14T08:03:27.654Z,90.28
2023-05-14T08:04:27.695Z,90.28
2023-05-14T08:05:27.576Z,89.13
2023-05-14T08:06:27.588Z,89.84
2023-05-14T08:07:27.545Z,90.75
2023-05-14T08:08:27.526Z,92.77
2023-05-14T08:09:27.521Z,94.32
2023-05-14T08:10:27.855Z,92.61
2023-05-14T08:11:27.510Z,92.21
2023-05-14T08:12:27.480Z,92.36
2023-05-14T08:13:27.458Z,91.55
2023-05-14T08:14:27.525Z,91.41
2023-05-14T08:15:28.031Z,92.02
2023-05-14T08:16:27.477Z,93.93
2023-05-14T08:17:27.452Z,94.34
2023-05-14T08:18:27.423Z,93.23
2023-05-14T08:19:27.407Z,92.22
2023-05-14T08:20:27.582Z,93.93
2023-05-14T08:21:27.359Z,94.64
2023-05-14T08:22:27.340Z,93.53
2023-05-14T08:23:27.322Z,93.38
2023-05-14T08:24:27.329Z,91.67
2023-05-14T08:25:27.310Z,95.30
2023-05-14T08:26:27.279Z,94.80
2023-05-14T08:27:27.277Z,93.79
2023-05-14T08:28:27.286Z,92.23
2023-05-14T08:29:27.268Z,93.44
2023-05-14T08:30:27.498Z,93.44
2023-05-14T08:31:27.299Z,93.34
2023-05-14T08:32:27.223Z,94.85
2023-05-14T08:33:27.195Z,95.36
2023-05-14T08:34:27.215Z,95.86
2023-05-14T08:35:27.172Z,95.66
2023-05-14T08:36:27.150Z,94.35
2023-05-14T08:37:27.194Z,94.51
2023-05-14T08:38:27.138Z,97.63
2023-05-14T08:39:27.116Z,97.23
2023-05-14T08:40:27.258Z,96.67
2023-05-14T08:41:27.110Z,95.56
2023-05-14T08:42:27.066Z,96.36
2023-05-14T08:43:27.078Z,97.33
2023-05-14T08:44:27.048Z,95.46
2023-05-14T08:45:27.055Z,96.26
2023-05-14T08:46:27.018Z,96.72
2023-05-14T08:47:27.085Z,96.62
2023-05-14T08:48:27.114Z,96.12
2023-05-14T08:49:27.008Z,96.52
2023-05-14T08:50:27.448Z,95.92
2023-05-14T08:51:26.957Z,96.52
2023-05-14T08:52:26.926Z,96.58
2023-05-14T08:53:26.929Z,97.08
2023-05-14T08:54:26.934Z,95.47
2023-05-14T08:55:26.899Z,95.27
2023-05-14T08:56:26.889Z,94.87
2023-05-14T08:57:26.901Z,95.87
2023-05-14T08:58:26.853Z,96.28
2023-05-14T08:59:26.872Z,96.58
2023-05-14T09:00:27.114Z,95.37
2023-05-14T09:01:26.868Z,95.17
2023-05-14T09:02:26.838Z,93.41
2023-05-14T09:03:26.849Z,92.35
2023-05-14T09:04:26.768Z,94.12
2023-05-14T09:05:26.775Z,94.52
2023-05-14T09:06:26.800Z,94.62
2023-05-14T09:07:26.779Z,95.73
2023-05-14T09:08:26.726Z,94.27
2023-05-14T09:09:26.709Z,88.43
2023-05-14T09:10:27.015Z,92.46
2023-05-14T09:11:26.712Z,89.64
2023-05-14T09:12:26.674Z,90.65
2023-05-14T09:13:28.326Z,92.61
2023-05-14T09:14:26.660Z,86.38
2023-05-14T09:15:26.646Z,83.17
2023-05-14T09:16:26.624Z,77.77
2023-05-14T09:17:26.660Z,85.08
2023-05-14T09:18:26.603Z,80.99
2023-05-14T09:19:26.596Z,84.07
2023-05-14T09:20:26.847Z,84.77
2023-05-14T09:21:26.578Z,88.79
2023-05-14T09:22:26.538Z,89.96
2023-05-14T09:23:26.528Z,91.17
2023-05-14T09:24:26.518Z,91.27
2023-05-14T09:25:26.527Z,90.06
2023-05-14T09:26:26.479Z,92.73
2023-05-14T09:27:26.467Z,92.73
2023-05-14T09:28:26.458Z,93.93
2023-05-14T09:29:26.468Z,91.13
2023-05-14T09:30:26.638Z,93.43
2023-05-14T09:31:26.450Z,93.03
2023-05-14T09:32:26.429Z,88.71
2023-05-14T09:33:26.388Z,79.87
2023-05-14T09:34:26.405Z,80.77
2023-05-14T09:35:26.376Z,83.79
2023-05-14T09:36:26.339Z,71.53
2023-05-14T09:37:26.336Z,76.76
2023-05-14T09:38:26.317Z,68.72
2023-05-14T09:39:26.373Z,74.65
2023-05-14T09:40:26.465Z,76.21
2023-05-14T09:41:26.284Z,79.83
2023-05-14T09:42:26.259Z,71.40
2023-05-14T09:43:26.266Z,69.39
2023-05-14T09:44:26.254Z,67.35
2023-05-14T09:45:26.226Z,68.85
2023-05-14T09:46:26.198Z,73.37
2023-05-14T09:47:26.344Z,71.06
2023-05-14T09:48:26.386Z,75.58
2023-05-14T09:49:26.198Z,71.77
2023-05-14T09:50:26.363Z,65.84
2023-05-14T09:51:26.130Z,64.94
2023-05-14T09:52:26.114Z,61.83
2023-05-14T09:53:26.128Z,64.34
2023-05-14T09:54:26.098Z,61.52
2023-05-14T09:55:26.087Z,60.82
2023-05-14T09:56:26.072Z,62.00
2023-05-14T09:57:26.095Z,69.73
2023-05-14T09:58:26.063Z,61.93
2023-05-14T09:59:26.041Z,62.03
2023-05-14T10:00:26.200Z,62.73
2023-05-14T10:01:26.077Z,62.23
2023-05-14T10:02:26.012Z,61.00
2023-05-14T10:03:25.976Z,61.70
2023-05-14T10:04:25.994Z,61.00
2023-05-14T10:05:25.944Z,61.47
2023-05-14T10:06:25.967Z,63.57
2023-05-14T10:07:25.937Z,63.75
2023-05-14T10:08:25.921Z,62.64
2023-05-14T10:09:25.898Z,62.64
2023-05-14T10:10:26.127Z,57.80
2023-05-14T10:11:25.894Z,57.60
2023-05-14T10:12:25.852Z,56.60
2023-05-14T10:13:25.871Z,57.30
2023-05-14T10:14:25.839Z,56.40
2023-05-14T10:15:25.810Z,55.60
2023-05-14T10:16:25.928Z,57.10
2023-05-14T10:17:25.834Z,58.61
2023-05-14T10:18:25.811Z,58.33
2023-05-14T10:19:25.933Z,58.33
2023-05-14T10:20:25.935Z,58.23
2023-05-14T10:21:25.754Z,59.03
2023-05-14T10:22:25.729Z,59.91
2023-05-14T10:23:25.720Z,61.08
2023-05-14T10:24:25.695Z,60.55
2023-05-14T10:25:25.685Z,58.92
2023-05-14T10:26:25.661Z,59.89
2023-05-14T10:27:25.728Z,55.36
2023-05-14T10:28:25.649Z,54.57
2023-05-14T10:29:25.623Z,55.34
2023-05-14T10:30:26.032Z,54.11
2023-05-14T10:31:25.657Z,52.64
2023-05-14T10:32:25.635Z,51.45
2023-05-14T10:33:25.581Z,52.47
2023-05-14T10:34:25.596Z,52.59
2023-05-14T10:35:25.549Z,51.89
2023-05-14T10:36:25.527Z,52.82
2023-05-14T10:37:25.558Z,52.55
2023-05-14T10:38:25.503Z,54.55
2023-05-14T10:39:25.513Z,53.57
2023-05-14T10:40:25.621Z,53.87
2023-05-14T10:41:25.465Z,54.00
2023-05-14T10:42:25.460Z,55.60
2023-05-14T10:43:25.437Z,55.40
2023-05-14T10:44:25.413Z,53.80
2023-05-14T10:45:25.488Z,54.10
2023-05-14T10:46:25.431Z,55.90
2023-05-14T10:47:25.383Z,56.70
2023-05-14T10:48:25.398Z,54.93
2023-05-14T10:49:39.886Z,55.13
2023-05-14T10:50:26.540Z,56.83
2023-05-14T10:51:25.353Z,56.73
2023-05-14T10:52:25.316Z,55.73
2023-05-14T10:53:25.387Z,56.33
2023-05-14T10:54:25.308Z,58.53
2023-05-14T10:55:25.272Z,58.73
2023-05-14T10:56:25.252Z,57.63
2023-05-14T10:57:25.254Z,57.35
2023-05-14T10:58:25.277Z,58.56
2023-05-14T10:59:25.223Z,56.65
2023-05-14T11:00:25.337Z,57.06
2023-05-14T11:01:25.200Z,56.76
2023-05-14T11:02:25.201Z,56.85
2023-05-14T11:03:25.220Z,57.96
2023-05-14T11:04:25.140Z,54.25
2023-05-14T11:05:25.145Z,54.75
2023-05-14T11:06:25.140Z,55.80
2023-05-14T11:07:25.165Z,54.27
2023-05-14T11:08:27.473Z,54.42
2023-05-14T11:09:25.092Z,53.72
2023-05-14T11:10:25.248Z,52.34
2023-05-14T11:11:25.053Z,52.64
2023-05-14T11:12:25.058Z,53.24
2023-05-14T11:13:25.032Z,51.27
2023-05-14T11:14:25.020Z,49.01
2023-05-14T11:15:25.023Z,45.30
2023-05-14T11:16:25.031Z,43.59
2023-05-14T11:17:25.009Z,45.26
2023-05-14T11:18:25.004Z,43.10
2023-05-14T11:19:24.969Z,42.29
2023-05-14T11:20:25.169Z,38.81
2023-05-14T11:21:24.962Z,38.70
2023-05-14T11:22:24.901Z,39.67
2023-05-14T11:23:24.902Z,39.14
2023-05-14T11:24:24.905Z,39.53
2023-05-14T11:25:24.882Z,39.34
2023-05-14T11:26:24.988Z,38.62
2023-05-14T11:27:24.844Z,38.64
2023-05-14T11:28:24.874Z,38.53
2023-05-14T11:29:24.810Z,39.02
2023-05-14T11:30:25.060Z,38.80
2023-05-14T11:31:24.862Z,38.60
2023-05-14T11:32:24.808Z,40.48
2023-05-14T11:33:24.794Z,40.01
2023-05-14T11:34:24.762Z,40.88
2023-05-14T11:35:24.755Z,38.82
2023-05-14T11:36:24.720Z,36.94
2023-05-14T11:37:24.724Z,37.93
2023-05-14T11:38:24.737Z,37.60
2023-05-14T11:39:24.696Z,37.34
2023-05-14T11:40:24.839Z,36.38
2023-05-14T11:41:24.668Z,36.49
2023-05-14T11:42:24.634Z,38.69
2023-05-14T11:43:24.641Z,41.09
2023-05-14T11:44:24.620Z,41.82
2023-05-14T11:45:24.622Z,41.66
2023-05-14T11:46:24.636Z,41.17
2023-05-14T11:47:24.585Z,42.29
2023-05-14T11:48:24.563Z,43.61
2023-05-14T11:49:24.598Z,42.83
2023-05-14T11:50:24.816Z,43.25
2023-05-14T11:51:24.529Z,45.65
2023-05-14T11:52:24.521Z,39.78
2023-05-14T11:53:24.520Z,37.59
2023-05-14T11:54:24.480Z,39.01
2023-05-14T11:55:24.461Z,40.52
2023-05-14T11:56:24.503Z,38.81
2023-05-14T11:57:24.442Z,40.71
2023-05-14T11:58:24.423Z,39.01
2023-05-14T11:59:24.443Z,39.78
2023-05-14T12:00:24.560Z,37.59
2023-05-14T12:01:24.401Z,37.34
2023-05-14T12:02:24.433Z,35.89
2023-05-14T12:03:24.722Z,34.64
2023-05-14T12:04:24.413Z,34.71
2023-05-14T12:05:24.336Z,33.87
2023-05-14T12:06:24.325Z,33.73
2023-05-14T12:07:24.315Z,31.73
2023-05-14T12:08:24.309Z,32.10
2023-05-14T12:09:24.284Z,32.18
2023-05-14T12:10:24.578Z,30.88
2023-05-14T12:11:24.247Z,30.10
2023-05-14T12:12:24.233Z,31.62
2023-05-14T12:13:24.234Z,34.00
2023-05-14T12:14:24.210Z,32.73
2023-05-14T12:15:24.204Z,33.17
2023-05-14T12:16:24.206Z,34.18
2023-05-14T12:17:24.300Z,34.00
2023-05-14T12:18:25.234Z,34.69
2023-05-14T12:19:24.247Z,34.71
2023-05-14T12:20:24.295Z,36.20
2023-05-14T12:21:24.113Z,35.39
2023-05-14T12:22:24.132Z,34.97
2023-05-14T12:23:24.119Z,32.79
2023-05-14T12:24:24.078Z,31.72
2023-05-14T12:25:24.076Z,32.43
2023-05-14T12:26:24.059Z,32.42
2023-05-14T12:27:24.079Z,30.73
2023-05-14T12:28:24.030Z,31.02
2023-05-14T12:29:24.012Z,31.51
2023-05-14T12:30:24.027Z,31.20
2023-05-14T12:31:24.065Z,29.79
2023-05-14T12:32:24.043Z,29.78
2023-05-14T12:33:24.002Z,31.59
2023-05-14T12:34:23.944Z,32.07
2023-05-14T12:35:24.087Z,30.88
2023-05-14T12:36:23.940Z,31.28
2023-05-14T12:37:24.108Z,30.21
2023-05-14T12:38:23.906Z,30.41
2023-05-14T12:39:23.874Z,30.32
2023-05-14T12:40:24.120Z,29.92
2023-05-14T12:41:23.868Z,30.71
2023-05-14T12:42:23.853Z,30.52
2023-05-14T12:43:23.828Z,30.33
2023-05-14T12:44:23.816Z,30.53
2023-05-14T12:45:23.921Z,31.02
2023-05-14T12:46:23.824Z,31.41
2023-05-14T12:47:23.813Z,30.80
2023-05-14T12:48:23.771Z,30.94
2023-05-14T12:49:23.750Z,30.47
2023-05-14T12:50:24.017Z,31.50
2023-05-14T12:51:23.725Z,33.32
2023-05-14T12:52:36.822Z,34.22